createdAt,value
2018-09-10T00:01:36.942Z,98038.58
2018-09-10T00:04:03.880Z,98039.61
2018-09-10T00:06:30.909Z,98045.14
2018-09-10T00:08:57.852Z,98044.35
2018-09-10T00:11:24.809Z,98046.98
2018-09-10T00:13:51.704Z,98047.49
2018-09-10T00:16:18.616Z,98048.57
2018-09-10T00:18:45.597Z,98039.61
2018-09-10T00:21:12.613Z,98040.41
2018-09-10T00:23:39.973Z,98037.78
2018-09-10T00:26:06.957Z,98041.72
2018-09-10T00:28:33.925Z,98042.52
2018-09-10T00:31:01.232Z,98038.81
2018-09-10T00:33:28.210Z,98034.64
2018-09-10T00:35:55.230Z,98037.78
2018-09-10T00:38:22.226Z,98037.78
2018-09-10T00:40:49.205Z,98037.78
2018-09-10T00:43:16.170Z,98048.29
2018-09-10T00:45:43.149Z,98035.95
2018-09-10T00:48:10.149Z,98041.72
2018-09-10T00:50:37.204Z,98044.35
2018-09-10T00:53:04.145Z,98042.52
2018-09-10T00:55:31.113Z,98036.98
2018-09-10T00:57:58.021Z,98030.42
2018-09-10T01:00:25.018Z,98032.53
2018-09-10T01:02:51.978Z,98035.95
2018-09-10T01:05:18.896Z,98033.33
2018-09-10T01:07:45.874Z,98037.27
2018-09-10T01:10:12.817Z,98035.16
2018-09-10T01:12:39.787Z,98029.11
2018-09-10T01:15:06.735Z,98029.91
2018-09-10T01:17:33.716Z,98032.02
2018-09-10T01:20:00.608Z,98038.58
2018-09-10T01:22:27.529Z,98038.06
2018-09-10T01:24:54.533Z,98036.75
2018-09-10T01:27:21.456Z,98037.27
2018-09-10T01:29:48.410Z,98041.20
2018-09-10T01:32:15.381Z,98037.27
2018-09-10T01:34:47.500Z,98040.41
2018-09-10T01:37:14.424Z,98039.38
2018-09-10T01:39:41.332Z,98039.38
2018-09-10T01:42:08.253Z,98045.42
2018-09-10T01:44:35.160Z,98049.09
2018-09-10T01:47:02.134Z,98049.09
2018-09-10T01:49:29.104Z,98049.88
2018-09-10T01:51:56.020Z,98055.14
2018-09-10T01:54:22.961Z,98055.42
2018-09-10T01:56:49.875Z,98055.66
2018-09-10T01:59:16.796Z,98053.31
2018-09-10T02:01:43.681Z,98049.88
2018-09-10T02:04:10.610Z,98049.09
2018-09-10T02:06:37.511Z,98046.45
2018-09-10T02:09:05.240Z,98045.42
2018-09-10T02:11:32.152Z,98046.45
2018-09-10T02:13:59.043Z,98040.41
2018-09-10T02:16:25.971Z,98041.20
2018-09-10T02:18:52.907Z,98044.35
2018-09-10T02:21:19.840Z,98045.14
2018-09-10T02:23:46.745Z,98043.03
2018-09-10T02:26:13.616Z,98038.58
2018-09-10T02:28:40.532Z,98033.33
2018-09-10T02:31:07.465Z,98038.58
2018-09-10T02:33:34.389Z,98039.38
2018-09-10T02:36:01.379Z,98034.64
2018-09-10T02:38:28.367Z,98022.30
2018-09-10T02:40:55.263Z,98017.28
2018-09-10T02:43:22.164Z,98012.59
2018-09-10T02:45:49.122Z,98018.87
2018-09-10T02:48:16.066Z,98018.36
2018-09-10T02:50:43.054Z,98016.25
2018-09-10T02:53:09.999Z,97990.20
2018-09-10T02:55:36.942Z,98018.87
2018-09-10T02:58:03.817Z,98015.45
2018-09-10T03:00:30.746Z,98016.77
2018-09-10T03:02:57.632Z,98022.30
2018-09-10T03:05:24.556Z,98021.51
2018-09-10T03:07:51.485Z,98020.71
2018-09-10T03:10:18.480Z,98019.39
2018-09-10T03:12:45.444Z,98022.54
2018-09-10T03:15:12.348Z,98029.91
2018-09-10T03:17:39.276Z,98029.39
2018-09-10T03:20:06.216Z,98033.33
2018-09-10T03:22:33.129Z,98032.81
2018-09-10T03:25:00.030Z,98031.22
2018-09-10T03:27:26.982Z,98033.33
2018-09-10T03:29:53.957Z,98028.88
2018-09-10T03:32:20.892Z,98027.56
2018-09-10T03:34:47.849Z,98028.08
2018-09-10T03:37:14.805Z,98025.96
2018-09-10T03:39:41.740Z,98030.70
2018-09-10T03:42:08.806Z,98032.02
2018-09-10T03:44:36.004Z,98032.81
2018-09-10T03:47:02.909Z,98029.11
2018-09-10T03:49:30.212Z,98030.19
2018-09-10T03:51:57.130Z,98032.81
2018-09-10T03:54:24.042Z,98033.84
2018-09-10T03:56:51.056Z,98035.44
2018-09-10T03:59:18.016Z,98036.47
2018-09-10T04:01:44.936Z,98037.55
2018-09-10T04:04:11.863Z,98041.72
2018-09-10T04:06:38.792Z,98039.09
2018-09-10T04:09:05.717Z,98049.60
2018-09-10T04:11:32.636Z,98049.60
2018-09-10T04:13:59.523Z,98057.25
2018-09-10T04:16:26.408Z,98060.91
2018-09-10T04:18:53.371Z,98066.44
2018-09-10T04:21:20.346Z,98068.27
2018-09-10T04:23:47.240Z,98060.91
2018-09-10T04:26:14.264Z,98060.39
2018-09-10T04:28:41.177Z,98063.02
2018-09-10T04:31:08.087Z,98056.17
2018-09-10T04:33:35.085Z,98061.42
2018-09-10T04:36:02.049Z,98072.20
2018-09-10T04:38:29.049Z,98072.72
2018-09-10T04:40:55.946Z,98070.90
2018-09-10T04:43:22.862Z,98074.55
2018-09-10T04:45:49.820Z,98076.67
2018-09-10T04:48:16.697Z,98078.78
2018-09-10T04:50:43.601Z,98042.87
2018-09-10T04:53:10.504Z,98074.55
2018-09-10T04:55:37.599Z,98076.91
2018-09-10T04:58:04.852Z,98064.56
2018-09-10T05:00:31.797Z,98068.50
2018-09-10T05:02:58.747Z,98067.70
2018-09-10T05:05:25.648Z,98073.98
2018-09-10T05:07:53.189Z,98070.05
2018-09-10T05:10:20.166Z,98076.91
2018-09-10T05:12:47.054Z,98080.27
2018-09-10T05:15:13.957Z,98085.30
2018-09-10T05:17:40.877Z,98090.27
2018-09-10T05:20:07.784Z,98087.36
2018-09-10T05:22:34.708Z,98093.92
2018-09-10T05:25:01.559Z,98093.61
2018-09-10T05:27:28.496Z,98099.38
2018-09-10T05:29:55.423Z,98097.03
2018-09-10T05:32:22.388Z,98103.69
2018-09-10T05:34:49.347Z,98110.45
2018-09-10T05:37:16.286Z,98111.83
2018-09-10T05:39:43.205Z,98110.75
2018-09-10T05:42:10.325Z,98116.16
2018-09-10T05:44:37.229Z,98114.12
2018-09-10T05:47:04.243Z,98128.30
2018-09-10T05:49:31.157Z,98122.68
2018-09-10T05:51:58.067Z,98124.52
2018-09-10T05:54:25.012Z,98133.20
2018-09-10T05:56:51.950Z,98133.20
2018-09-10T05:59:18.937Z,98128.13
2018-09-10T06:01:45.976Z,98134.97
2018-09-10T06:04:12.864Z,98129.70
2018-09-10T06:06:39.752Z,98132.67
2018-09-10T06:09:06.684Z,98128.35
2018-09-10T06:11:33.580Z,98121.25
2018-09-10T06:14:00.476Z,98127.14
2018-09-10T06:16:27.389Z,98125.84
2018-09-10T06:18:54.346Z,98129.48
2018-09-10T06:21:21.277Z,98117.59
2018-09-10T06:23:48.175Z,98126.70
2018-09-10T06:26:15.154Z,98132.36
2018-09-10T06:28:42.168Z,98137.44
2018-09-10T06:31:09.189Z,98147.57
2018-09-10T06:33:36.366Z,98145.01
2018-09-10T06:36:03.277Z,98142.22
2018-09-10T06:38:30.265Z,98134.31
2018-09-10T06:40:57.208Z,98133.58
2018-09-10T06:43:24.181Z,98122.86
2018-09-10T06:45:51.239Z,98126.05
2018-09-10T06:48:18.169Z,98124.03
2018-09-10T06:50:45.124Z,98121.75
2018-09-10T06:53:12.026Z,98121.24
2018-09-10T06:55:38.956Z,98127.34
2018-09-10T06:58:05.945Z,98126.61
2018-09-10T07:00:32.924Z,98132.14
2018-09-10T07:02:59.822Z,98135.33
2018-09-10T07:05:26.766Z,98129.38
2018-09-10T07:07:53.750Z,98136.73
2018-09-10T07:10:20.688Z,98138.39
2018-09-10T07:12:47.602Z,98137.59
2018-09-10T07:15:14.573Z,98139.47
2018-09-10T07:17:41.481Z,98144.27
2018-09-10T07:20:08.487Z,98140.05
2018-09-10T07:22:35.732Z,98148.77
2018-09-10T07:25:02.697Z,98151.39
2018-09-10T07:27:29.801Z,98150.39
2018-09-10T07:29:56.809Z,98156.73
2018-09-10T07:32:23.807Z,98154.39
2018-09-10T07:34:50.833Z,98156.22
2018-09-10T07:37:17.895Z,98165.17
2018-09-10T07:39:45.339Z,98163.34
2018-09-10T07:42:12.473Z,98168.36
2018-09-10T07:44:39.556Z,98166.03
2018-09-10T07:47:06.619Z,98163.41
2018-09-10T07:49:33.750Z,98163.69
2018-09-10T07:52:00.857Z,98166.08
2018-09-10T07:54:27.967Z,98168.70
2018-09-10T07:56:55.051Z,98170.31
2018-09-10T07:59:22.031Z,98168.48
2018-09-10T08:01:49.123Z,98173.73
2018-09-10T08:04:16.241Z,98175.61
2018-09-10T08:06:43.426Z,98170.36
2018-09-10T08:09:11.253Z,98167.73
2018-09-10T08:11:38.308Z,98170.36
2018-09-10T08:14:05.318Z,98175.92
2018-09-10T08:16:32.331Z,98174.90
2018-09-10T08:19:00.192Z,98168.34
2018-09-10T08:21:27.141Z,98169.65
2018-09-10T08:23:54.274Z,98167.03
2018-09-10T08:26:21.225Z,98169.14
2018-09-10T08:28:48.246Z,98168.11
2018-09-10T08:31:15.185Z,98166.28
2018-09-10T08:33:42.186Z,98174.45
2018-09-10T08:36:09.140Z,98175.24
2018-09-10T08:38:36.076Z,98180.49
2018-09-10T08:41:03.047Z,98183.91
2018-09-10T08:43:30.092Z,98182.60
2018-09-10T08:45:57.093Z,98183.41
2018-09-10T08:48:24.101Z,98174.27
2018-09-10T08:50:51.025Z,98170.05
2018-09-10T08:53:18.018Z,98170.56
2018-09-10T08:55:45.162Z,98171.64
2018-09-10T08:58:12.034Z,98173.47
2018-09-10T09:00:38.987Z,98164.57
2018-09-10T09:03:05.929Z,98166.69
2018-09-10T09:05:32.902Z,98158.02
2018-09-10T09:07:59.961Z,98152.98
2018-09-10T09:10:26.862Z,98147.97
2018-09-10T09:12:53.822Z,98142.35
2018-09-10T09:15:20.706Z,98137.11
2018-09-10T09:17:47.687Z,98135.97
2018-09-10T09:20:14.633Z,98152.14
2018-09-10T09:22:41.674Z,98155.55
2018-09-10T09:25:08.724Z,98163.38
2018-09-10T09:27:35.710Z,98159.84
2018-09-10T09:30:02.772Z,98160.75
2018-09-10T09:32:29.749Z,98158.52
2018-09-10T09:34:57.850Z,98161.69
2018-09-10T09:37:30.102Z,98162.83
2018-09-10T09:40:02.390Z,98155.56
2018-09-10T09:42:34.772Z,98152.42
2018-09-10T09:45:07.073Z,98152.70
2018-09-10T09:47:34.140Z,98156.61
2018-09-10T09:50:01.216Z,98159.09
2018-09-10T09:52:28.440Z,98157.86
2018-09-10T09:54:55.555Z,98157.67
2018-09-10T09:57:22.942Z,98152.88
2018-09-10T09:59:49.972Z,98153.45
2018-09-10T10:02:22.354Z,98146.55
2018-09-10T10:04:49.520Z,98140.69
2018-09-10T10:07:16.850Z,98138.53
2018-09-10T10:09:43.825Z,98144.80
2018-09-10T10:12:10.895Z,98138.81
2018-09-10T10:14:37.914Z,98139.98
2018-09-10T10:17:05.077Z,98142.67
2018-09-10T10:19:32.152Z,98145.49
2018-09-10T10:21:59.283Z,98138.10
2018-09-10T10:24:26.280Z,98134.75
2018-09-10T10:26:53.257Z,98130.60
2018-09-10T10:29:20.207Z,98125.59
2018-09-10T10:31:47.146Z,98124.98
2018-09-10T10:34:14.430Z,98123.48
2018-09-10T10:36:41.493Z,98123.44
2018-09-10T10:39:09.116Z,98111.00
2018-09-10T10:41:36.201Z,98118.28
2018-09-10T10:44:03.119Z,98113.49
2018-09-10T10:46:30.362Z,98118.46
2018-09-10T10:48:57.350Z,98116.87
2018-09-10T10:51:24.387Z,98118.69
2018-09-10T10:53:51.396Z,98119.20
2018-09-10T10:56:18.323Z,98120.63
2018-09-10T10:58:45.309Z,98123.33
2018-09-10T11:01:12.352Z,98120.19
2018-09-10T11:03:39.409Z,98122.30
2018-09-10T11:06:06.482Z,98116.53
2018-09-10T11:08:33.438Z,98113.11
2018-09-10T11:11:00.525Z,98111.28
2018-09-10T11:13:27.495Z,98106.03
2018-09-10T11:15:54.437Z,98101.06
2018-09-10T11:18:21.465Z,98106.03
2018-09-10T11:20:48.588Z,98094.73
2018-09-10T11:23:15.543Z,98095.53
2018-09-10T11:25:42.485Z,98092.90
2018-09-10T11:28:09.454Z,98092.62
2018-09-10T11:30:36.459Z,98084.50
2018-09-10T11:33:03.508Z,98083.98
2018-09-10T11:35:30.467Z,98086.34
2018-09-10T11:37:57.456Z,98088.73
2018-09-10T11:40:24.396Z,98098.20
2018-09-10T11:42:51.334Z,98099.00
2018-09-10T11:45:18.418Z,98097.97
2018-09-10T11:47:45.405Z,98096.37
2018-09-10T11:50:13.187Z,98090.79
2018-09-10T11:52:40.116Z,98101.30
2018-09-10T11:55:07.137Z,98095.95
2018-09-10T11:57:34.049Z,98097.79
2018-09-10T12:00:00.948Z,98096.70
2018-09-10T12:02:27.943Z,98099.61
2018-09-10T12:04:54.963Z,98097.73
2018-09-10T12:07:21.870Z,98094.59
2018-09-10T12:09:48.762Z,98099.05
2018-09-10T12:12:15.705Z,98098.02
2018-09-10T12:14:42.630Z,98100.12
2018-09-10T12:17:09.603Z,98098.02
2018-09-10T12:19:36.680Z,98093.52
2018-09-10T12:22:03.670Z,98094.59
2018-09-10T12:24:30.755Z,98088.55
2018-09-10T12:26:57.689Z,98086.72
2018-09-10T12:29:24.613Z,98085.41
2018-09-10T12:31:51.620Z,98091.17
2018-09-10T12:34:18.530Z,98088.03
2018-09-10T12:36:45.440Z,98089.34
2018-09-10T12:39:12.682Z,98079.87
2018-09-10T12:41:39.863Z,98079.36
2018-09-10T12:44:07.294Z,98084.33
2018-09-10T12:46:34.289Z,98085.69
2018-09-10T12:49:01.125Z,98079.92
2018-09-10T12:51:28.017Z,98079.92
2018-09-10T12:53:54.977Z,98076.78
2018-09-10T12:56:21.938Z,98084.14
2018-09-10T12:58:49.007Z,98083.42
2018-09-10T13:01:15.880Z,98081.64
2018-09-10T13:03:42.906Z,98084.55
2018-09-10T13:06:09.872Z,98074.33
2018-09-10T13:08:36.818Z,98080.89
2018-09-10T13:11:03.730Z,98081.41
2018-09-10T13:13:30.635Z,98075.65
2018-09-10T13:15:57.545Z,98071.42
2018-09-10T13:18:24.469Z,98071.42
2018-09-10T13:20:51.370Z,98075.65
2018-09-10T13:23:18.315Z,98071.70
2018-09-10T13:25:45.225Z,98068.28
2018-09-10T13:28:12.138Z,98067.77
2018-09-10T13:30:39.071Z,98058.86
2018-09-10T13:33:05.963Z,98058.06
2018-09-10T13:35:32.857Z,98060.17
2018-09-10T13:37:59.768Z,98068.33
2018-09-10T13:40:26.670Z,98053.61
2018-09-10T13:42:53.587Z,98047.27
2018-09-10T13:45:20.490Z,98042.59
2018-09-10T13:47:47.430Z,98041.78
2018-09-10T13:50:14.348Z,98045.73
2018-09-10T13:52:41.255Z,98044.41
2018-09-10T13:55:14.414Z,98040.47
2018-09-10T13:57:41.415Z,98032.88
2018-09-10T14:00:08.342Z,98029.17
2018-09-10T14:02:35.911Z,98032.59
2018-09-10T14:05:02.882Z,98027.34
2018-09-10T14:07:29.814Z,98030.53
2018-09-10T14:09:56.734Z,98032.36
2018-09-10T14:12:23.690Z,98034.23
2018-09-10T14:14:50.600Z,98035.63
2018-09-10T14:17:17.582Z,98036.14
2018-09-10T14:19:44.491Z,98033.52
2018-09-10T14:22:11.421Z,98030.58
2018-09-10T14:24:38.374Z,98027.44
2018-09-10T14:27:05.356Z,98028.27
2018-09-10T14:29:32.284Z,98041.87
2018-09-10T14:31:59.265Z,98040.57
2018-09-10T14:34:26.183Z,98032.69
2018-09-10T14:36:53.158Z,98033.20
2018-09-10T14:39:20.085Z,98032.20
2018-09-10T14:41:47.019Z,98038.77
2018-09-10T14:44:13.999Z,98038.53
2018-09-10T14:46:40.912Z,98033.52
2018-09-10T14:49:07.853Z,98035.63
2018-09-10T14:51:34.922Z,98039.56
2018-09-10T14:54:01.838Z,98038.02
2018-09-10T14:56:28.826Z,98035.20
2018-09-10T14:58:55.712Z,98038.91
2018-09-10T15:01:22.650Z,98039.70
2018-09-10T15:03:49.561Z,98037.31
2018-09-10T15:06:16.501Z,98038.62
2018-09-10T15:08:43.413Z,98034.41
2018-09-10T15:11:10.620Z,98031.78
2018-09-10T15:13:37.523Z,98027.05
2018-09-10T15:16:04.439Z,98025.45
2018-09-10T15:18:31.511Z,98022.30
2018-09-10T15:20:58.309Z,98019.16
2018-09-10T15:23:25.267Z,98019.45
2018-09-10T15:25:52.189Z,98019.48
2018-09-10T15:28:19.101Z,98020.80
2018-09-10T15:30:46.038Z,98027.88
2018-09-10T15:33:12.932Z,98024.45
2018-09-10T15:35:39.834Z,98023.94
2018-09-10T15:38:06.742Z,98023.14
2018-09-10T15:40:33.719Z,98020.23
2018-09-10T15:43:00.606Z,98016.06
2018-09-10T15:45:27.514Z,98024.45
2018-09-10T15:47:54.412Z,98021.31
2018-09-10T15:50:21.306Z,98021.31
2018-09-10T15:52:48.220Z,98021.88
2018-09-10T15:55:15.149Z,98028.00
2018-09-10T15:57:42.070Z,98023.55
2018-09-10T16:00:09.106Z,98026.17
2018-09-10T16:02:35.966Z,98028.28
2018-09-10T16:05:02.952Z,98028.49
2018-09-10T16:07:29.845Z,98031.11
2018-09-10T16:09:56.746Z,98029.24
2018-09-10T16:12:23.654Z,98031.59
2018-09-10T16:14:50.569Z,98033.42
2018-09-10T16:17:17.501Z,98035.02
2018-09-10T16:19:44.418Z,98038.67
2018-09-10T16:22:11.309Z,98032.91
2018-09-10T16:24:38.213Z,98008.40
2018-09-10T16:27:05.129Z,98037.88
2018-09-10T16:29:32.046Z,98038.39
2018-09-10T16:31:58.958Z,98038.16
2018-09-10T16:34:25.861Z,98038.91
2018-09-10T16:36:52.871Z,98040.73
2018-09-10T16:39:19.783Z,98044.67
2018-09-10T16:41:46.688Z,98040.73
2018-09-10T16:44:13.627Z,98043.88
2018-09-10T16:46:40.525Z,98045.19
2018-09-10T16:49:07.424Z,98046.03
2018-09-10T16:51:34.454Z,98043.17
2018-09-10T16:54:01.617Z,98044.72
2018-09-10T16:56:28.488Z,98042.05
2018-09-10T16:58:55.413Z,98037.03
2018-09-10T17:01:22.318Z,98035.44
2018-09-10T17:03:49.204Z,98032.02
2018-09-10T17:06:16.113Z,98038.30
2018-09-10T17:08:43.037Z,98043.03
2018-09-10T17:11:09.937Z,98038.81
2018-09-10T17:13:36.820Z,98038.02
2018-09-10T17:16:03.716Z,98035.39
2018-09-10T17:18:30.608Z,98032.48
2018-09-10T17:20:57.598Z,98033.28
2018-09-10T17:23:24.501Z,98037.22
2018-09-10T17:25:52.895Z,98031.17
2018-09-10T17:28:20.362Z,98037.73
2018-09-10T17:30:47.281Z,98030.89
2018-09-10T17:33:14.176Z,98029.58
2018-09-10T17:35:41.069Z,98035.63
2018-09-10T17:38:07.995Z,98037.73
2018-09-10T17:40:34.955Z,98030.38
2018-09-10T17:43:01.841Z,98039.05
2018-09-10T17:45:28.724Z,98043.55
2018-09-10T17:47:55.790Z,98038.81
2018-09-10T17:50:22.736Z,98039.33
2018-09-10T17:52:49.628Z,98041.16
2018-09-10T17:55:16.555Z,98046.93
2018-09-10T17:57:43.436Z,98045.62
2018-09-10T18:00:10.364Z,98045.34
2018-09-10T18:02:37.452Z,98048.76
2018-09-10T18:05:04.343Z,98052.19
2018-09-10T18:07:31.341Z,98050.07
2018-09-10T18:09:58.309Z,98053.70
2018-09-10T18:12:25.264Z,98053.70
2018-09-10T18:14:52.626Z,98052.39
2018-09-10T18:17:19.512Z,98057.16
2018-09-10T18:19:46.408Z,98054.73
2018-09-10T18:22:13.301Z,98067.14
2018-09-10T18:24:40.200Z,98066.34
2018-09-10T18:27:07.104Z,98067.66
2018-09-10T18:29:34.020Z,98076.34
2018-09-10T18:32:00.950Z,98075.02
2018-09-10T18:34:27.845Z,98075.82
2018-09-10T18:36:54.745Z,98070.56
2018-09-10T18:39:21.646Z,98073.76
2018-09-10T18:41:48.548Z,98075.87
2018-09-10T18:44:15.441Z,98083.23
2018-09-10T18:46:42.361Z,98076.44
2018-09-10T18:49:09.271Z,98078.83
2018-09-10T18:51:36.209Z,98081.73
2018-09-10T18:54:03.126Z,98076.20
2018-09-10T18:56:30.030Z,98080.66
2018-09-10T18:58:56.937Z,98070.94
2018-09-10T19:01:24.059Z,98082.25
2018-09-10T19:03:50.786Z,98076.99
2018-09-10T19:06:17.732Z,98062.55
2018-09-10T19:08:44.702Z,98065.97
2018-09-10T19:11:11.656Z,98070.76
2018-09-10T19:13:38.656Z,98063.67
2018-09-10T19:16:05.705Z,98066.02
2018-09-10T19:18:37.784Z,98068.92
2018-09-10T19:21:04.844Z,98067.09
2018-09-10T19:23:31.880Z,98064.47
2018-09-10T19:25:58.867Z,98069.20
2018-09-10T19:28:26.177Z,98069.20
2018-09-10T19:30:53.145Z,98067.84
2018-09-10T19:33:20.381Z,98075.49
2018-09-10T19:35:47.328Z,98079.44
2018-09-10T19:38:14.401Z,98083.89
2018-09-10T19:40:41.481Z,98086.52
2018-09-10T19:43:08.459Z,98093.08
2018-09-10T19:45:35.593Z,98093.08
2018-09-10T19:48:02.622Z,98089.94
2018-09-10T19:50:29.576Z,98090.73
2018-09-10T19:52:56.615Z,98092.37
2018-09-10T19:55:23.608Z,98085.48
2018-09-10T19:57:50.594Z,98094.16
2018-09-10T20:00:17.577Z,98098.10
2018-09-10T20:02:44.594Z,98104.19
2018-09-10T20:05:11.571Z,98104.19
2018-09-10T20:07:38.522Z,98113.38
2018-09-10T20:10:05.496Z,98116.50
2018-09-10T20:12:32.489Z,98119.95
2018-09-10T20:14:59.509Z,98118.64
2018-09-10T20:17:26.493Z,98120.44
2018-09-10T20:19:53.457Z,98129.14
2018-09-10T20:22:20.453Z,98128.31
2018-09-10T20:24:47.545Z,98132.05
2018-09-10T20:27:14.842Z,98134.68
2018-09-10T20:29:41.778Z,98136.51
2018-09-10T20:32:09.259Z,98135.20
2018-09-10T20:34:36.211Z,98127.83
2018-09-10T20:37:03.287Z,98127.83
2018-09-10T20:39:30.244Z,98132.05
2018-09-10T20:41:57.130Z,98135.20
2018-09-10T20:44:24.066Z,98133.88
2018-09-10T20:46:51.027Z,98132.85
2018-09-10T20:49:17.957Z,98131.25
2018-09-10T20:51:44.952Z,98134.68
2018-09-10T20:54:11.882Z,98135.99
2018-09-10T20:56:38.795Z,98135.20
2018-09-10T20:59:05.743Z,98134.68
2018-09-10T21:01:32.733Z,98141.25
2018-09-10T21:03:59.719Z,98132.34
2018-09-10T21:06:26.677Z,98127.83
2018-09-10T21:08:53.607Z,98132.05
2018-09-10T21:11:20.575Z,98129.42
2018-09-10T21:13:47.556Z,98129.94
2018-09-10T21:16:14.513Z,98134.96
2018-09-10T21:18:41.432Z,98133.37
2018-09-10T21:21:08.354Z,98142.56
2018-09-10T21:23:35.403Z,98143.36
2018-09-10T21:26:02.331Z,98139.42
2018-09-10T21:28:29.288Z,98144.67
2018-09-10T21:30:56.247Z,98149.13
2018-09-10T21:33:23.235Z,98150.44
2018-09-10T21:35:50.194Z,98149.13
2018-09-10T21:38:17.153Z,98152.27
2018-09-10T21:40:44.080Z,98149.64
2018-09-10T21:43:11.118Z,98149.13
2018-09-10T21:45:38.046Z,98148.89
2018-09-10T21:48:04.980Z,98152.84
2018-09-10T21:50:31.932Z,98146.27
2018-09-10T21:52:58.898Z,98145.19
2018-09-10T21:55:25.850Z,98149.93
2018-09-10T21:57:52.816Z,98147.02
2018-09-10T22:00:19.765Z,98144.16
2018-09-10T22:02:46.705Z,98139.70
2018-09-10T22:05:13.663Z,98138.39
2018-09-10T22:07:40.621Z,98136.51
2018-09-10T22:10:07.803Z,98134.16
2018-09-10T22:12:34.777Z,98136.27
2018-09-10T22:15:01.717Z,98139.42
2018-09-10T22:17:28.680Z,98139.42
2018-09-10T22:19:55.739Z,98136.79
2018-09-10T22:22:22.702Z,98134.96
2018-09-10T22:24:49.632Z,98140.73
2018-09-10T22:27:16.613Z,98138.10
2018-09-10T22:29:43.677Z,98132.85
2018-09-10T22:32:10.734Z,98131.53
2018-09-10T22:34:37.694Z,98128.11
2018-09-10T22:37:04.717Z,98124.97
2018-09-10T22:39:31.659Z,98119.72
2018-09-10T22:41:58.580Z,98131.81
2018-09-10T22:44:28.151Z,98122.34
2018-09-10T22:46:55.164Z,98129.94
2018-09-10T22:49:22.119Z,98133.65
2018-09-10T22:51:49.069Z,98126.28
2018-09-10T22:54:16.030Z,98138.10
2018-09-10T22:56:42.946Z,98134.45
2018-09-10T22:59:09.884Z,98133.13
2018-09-10T23:01:36.812Z,98135.77
2018-09-10T23:04:03.715Z,98135.48
2018-09-10T23:06:30.604Z,98141.02
2018-09-10T23:08:57.513Z,98138.63
2018-09-10T23:11:24.443Z,98138.63
2018-09-10T23:13:51.457Z,98138.10
2018-09-10T23:16:18.403Z,98134.68
2018-09-10T23:18:45.339Z,98137.30
2018-09-10T23:21:12.329Z,98146.50
2018-09-10T23:23:39.271Z,98144.67
2018-09-10T23:26:06.214Z,98152.55
2018-09-10T23:28:33.198Z,98155.47
2018-09-10T23:31:00.132Z,98155.18
2018-09-10T23:33:27.111Z,98152.03
2018-09-10T23:35:54.020Z,98147.30
2018-09-10T23:38:20.969Z,98153.07
2018-09-10T23:40:47.894Z,98155.47
2018-09-10T23:43:14.902Z,98161.23
2018-09-10T23:45:41.945Z,98165.69
2018-09-10T23:48:08.909Z,98159.41
2018-09-10T23:50:35.820Z,98166.77
2018-09-10T23:53:03.033Z,98167.28
2018-09-10T23:55:30.004Z,98160.44
2018-09-10T23:57:56.927Z,98170.95
